Terraville, South Dakota
Current Conditions -  °F | °C
As of 12:55 PM on Saturday 25 Oct 2014 (Local Time) from KSPF Reporting Station
Clear Clear  
Wind Chill: 63°   Ceiling: Unl
Heat Index: 63°   Visibility: 10mi
Dew Point: 39°   Wind: 5mph
Humidity: 42%   Direction: 50°NE
Pressure: 30.07"   Gusts: NA
Location:  44.253°N, 103.912°W
Report Text: KSPF 251855Z AUTO 05004KT 10SM CLR 17/04 A3007 RMK AO2
Loading
Personal Weather Stations






























Interactive Weather Map
Tropical Storm Tracking
New forecast layout! Learn more

10-Day Weather Forecast

Advertisements
Track Severe Weather on mobile